Time;durP1;ratioP1;P1;durP2;ratioP2;P2;SDS_P1;SDS_P2;PMS_P1;PMS_P2;Temp;Humidity;BMP_temperature;BMP_pressure;BME280_temperature;BME280_humidity;BME280_pressure;Samples;Min_cycle;Max_cycle;Signal;HPM_P1;HPM_P2
2022/04/19 00:00:26;;;;;;;1.20;1.10;;;;;;;;;;8217378;28;20042;-72
2022/04/19 00:04:27;;;;;;;1.17;1.00;;;;;;;;;;8199734;28;20283;-72
2022/04/19 00:08:27;;;;;;;2.90;1.20;;;;;;;;;;8216996;28;20038;-72
2022/04/19 00:12:29;;;;;;;1.23;1.13;;;;;;;;;;8210518;28;20030;-72
2022/04/19 00:16:29;;;;;;;1.25;1.13;;;;;;;;;;8198220;28;20049;-72
2022/04/19 00:20:30;;;;;;;1.17;1.02;;;;;;;;;;8213891;28;20058;-72
2022/04/19 00:24:30;;;;;;;1.38;1.05;;;;;;;;;;8214585;28;20117;-72
2022/04/19 00:28:31;;;;;;;1.92;1.08;;;;;;;;;;8211761;28;20023;-72
2022/04/19 00:32:31;;;;;;;4.22;1.00;;;;;;;;;;8210537;28;20093;-72
2022/04/19 00:36:31;;;;;;;1.30;1.10;;;;;;;;;;8205841;28;20146;-72
2022/04/19 00:40:31;;;;;;;1.42;1.33;;;;;;;;;;8209435;28;20030;-72
2022/04/19 00:44:33;;;;;;;2.28;1.70;;;;;;;;;;8222965;28;20574;-72
2022/04/19 00:48:33;;;;;;;1.50;1.10;;;;;;;;;;8222673;28;20043;-72
2022/04/19 00:52:35;;;;;;;1.00;1.00;;;;;;;;;;8223616;28;20441;-72
2022/04/19 00:56:35;;;;;;;1.20;1.10;;;;;;;;;;8205618;28;20302;-72
2022/04/19 01:00:35;;;;;;;1.83;1.20;;;;;;;;;;8212936;28;20775;-72
2022/04/19 01:04:36;;;;;;;2.00;0.93;;;;;;;;;;8223141;28;20015;-72
2022/04/19 01:08:36;;;;;;;1.27;1.10;;;;;;;;;;8222791;28;20294;-72
2022/04/19 01:16:55;;;;;;;1.95;1.20;;;;;;;;;;8222544;28;20049;-72
2022/04/19 01:20:56;;;;;;;1.17;1.00;;;;;;;;;;8206543;28;20024;-72
2022/04/19 01:24:56;;;;;;;1.45;1.17;;;;;;;;;;8219690;28;20042;-72
2022/04/19 01:28:56;;;;;;;1.10;1.10;;;;;;;;;;8201322;28;20121;-72
2022/04/19 01:32:57;;;;;;;1.70;1.30;;;;;;;;;;8215571;28;20039;-72
2022/04/19 01:36:57;;;;;;;1.42;1.20;;;;;;;;;;8216679;28;20030;-72
2022/04/19 01:40:58;;;;;;;2.30;1.20;;;;;;;;;;8216790;28;21139;-72
2022/04/19 01:44:59;;;;;;;2.35;1.30;;;;;;;;;;8219490;28;20539;-72
2022/04/19 01:49:01;;;;;;;1.23;1.08;;;;;;;;;;8215772;28;20046;-72
2022/04/19 01:53:01;;;;;;;1.85;1.35;;;;;;;;;;8216375;28;20030;-72
2022/04/19 01:57:02;;;;;;;1.20;1.10;;;;;;;;;;8217835;28;20026;-72
2022/04/19 02:01:08;;;;;;;1.63;1.30;;;;;;;;;;8219131;28;20086;-72
2022/04/19 02:05:09;;;;;;;1.80;1.40;;;;;;;;;;8212197;28;20073;-72
2022/04/19 02:09:09;;;;;;;1.73;1.10;;;;;;;;;;8216761;28;20126;-72
2022/04/19 02:13:09;;;;;;;1.35;1.00;;;;;;;;;;8214801;28;20038;-72
2022/04/19 02:17:10;;;;;;;1.60;1.40;;;;;;;;;;8214910;28;20126;-72
2022/04/19 02:21:11;;;;;;;1.20;1.10;;;;;;;;;;8214542;28;20019;-72
2022/04/19 02:25:14;;;;;;;2.37;1.27;;;;;;;;;;8217838;28;20124;-72
2022/04/19 02:29:16;;;;;;;2.63;1.20;;;;;;;;;;8212806;28;20835;-72
2022/04/19 02:33:16;;;;;;;2.40;1.30;;;;;;;;;;8213087;28;20035;-72
2022/04/19 02:37:17;;;;;;;1.95;1.33;;;;;;;;;;8212911;28;20053;-72
2022/04/19 02:41:17;;;;;;;1.45;1.25;;;;;;;;;;8210342;28;20035;-72
2022/04/19 02:45:19;;;;;;;1.95;1.38;;;;;;;;;;8213329;28;20033;-72
2022/04/19 02:49:19;;;;;;;2.35;1.40;;;;;;;;;;8215600;28;21003;-72
2022/04/19 02:53:20;;;;;;;3.00;1.30;;;;;;;;;;8216552;28;20034;-72
2022/04/19 02:57:20;;;;;;;4.35;1.30;;;;;;;;;;8195120;28;20030;-72
2022/04/19 03:01:20;;;;;;;2.17;1.42;;;;;;;;;;8211075;28;20046;-72
2022/04/19 03:05:20;;;;;;;2.78;1.60;;;;;;;;;;8216629;28;20026;-72
2022/04/19 03:09:21;;;;;;;3.40;1.40;;;;;;;;;;8217980;28;20027;-72
2022/04/19 03:13:21;;;;;;;1.77;1.23;;;;;;;;;;8213583;28;20285;-72
2022/04/19 03:17:22;;;;;;;1.48;1.30;;;;;;;;;;8203648;28;20035;-72
2022/04/19 03:21:22;;;;;;;2.03;1.38;;;;;;;;;;8212695;28;20022;-72
2022/04/19 03:29:41;;;;;;;1.50;1.20;;;;;;;;;;8214011;28;20127;-72
2022/04/19 03:33:42;;;;;;;4.40;1.50;;;;;;;;;;8212565;28;20941;-72
2022/04/19 03:37:42;;;;;;;1.83;1.20;;;;;;;;;;8197065;28;20043;-72
2022/04/19 03:41:42;;;;;;;6.00;3.38;;;;;;;;;;8216134;28;20031;-72
2022/04/19 03:45:42;;;;;;;7.13;3.13;;;;;;;;;;8217084;28;20038;-72
2022/04/19 03:49:43;;;;;;;4.00;2.47;;;;;;;;;;8211676;28;20498;-72
2022/04/19 03:53:44;;;;;;;3.50;2.30;;;;;;;;;;8214600;28;20089;-72
2022/04/19 03:57:44;;;;;;;3.40;2.40;;;;;;;;;;8212916;28;20057;-72
2022/04/19 04:01:45;;;;;;;5.03;2.30;;;;;;;;;;8194757;28;20041;-72
2022/04/19 04:05:45;;;;;;;6.70;1.63;;;;;;;;;;8214352;28;20436;-73
2022/04/19 04:09:45;;;;;;;3.55;1.60;;;;;;;;;;8213618;28;20029;-72
2022/04/19 04:13:46;;;;;;;5.70;1.80;;;;;;;;;;8212256;28;20031;-72
2022/04/19 04:17:46;;;;;;;3.97;1.40;;;;;;;;;;8212903;28;20066;-72
2022/04/19 04:21:46;;;;;;;2.25;1.40;;;;;;;;;;8212206;28;20258;-72
2022/04/19 04:25:46;;;;;;;5.13;1.80;;;;;;;;;;8201153;28;20063;-72
2022/04/19 04:29:47;;;;;;;2.58;1.77;;;;;;;;;;8202114;28;20026;-72
2022/04/19 04:33:47;;;;;;;5.97;1.63;;;;;;;;;;8205336;28;20062;-73
2022/04/19 04:37:47;;;;;;;3.00;1.53;;;;;;;;;;8217804;28;20058;-72
2022/04/19 04:41:48;;;;;;;3.22;1.50;;;;;;;;;;8218281;28;20294;-72
2022/04/19 04:49:35;;;;;;;2.30;1.60;;;;;;;;;;8214068;28;20032;-72
2022/04/19 04:50:11;;;;;;;4.82;1.80;;;;;;;;;;8215011;28;20066;-72
2022/04/19 04:54:11;;;;;;;4.05;1.67;;;;;;;;;;8197077;28;20023;-72
2022/04/19 04:58:12;;;;;;;5.05;1.55;;;;;;;;;;8216177;28;20023;-72
2022/04/19 05:02:12;;;;;;;3.08;1.67;;;;;;;;;;8209964;28;20141;-72
2022/04/19 05:06:12;;;;;;;4.33;1.40;;;;;;;;;;8208685;28;20034;-71
2022/04/19 05:10:13;;;;;;;4.68;1.80;;;;;;;;;;8195955;28;20609;-71
2022/04/19 05:14:13;;;;;;;2.40;1.38;;;;;;;;;;8196758;28;20031;-71
2022/04/19 05:18:14;;;;;;;4.07;1.90;;;;;;;;;;8176512;28;20086;-71
2022/04/19 05:22:15;;;;;;;2.88;1.63;;;;;;;;;;8197102;28;20851;-71
2022/04/19 05:26:15;;;;;;;4.55;2.83;;;;;;;;;;8201221;28;20034;-71
2022/04/19 05:30:15;;;;;;;5.32;2.85;;;;;;;;;;8197854;28;20494;-71
2022/04/19 05:34:15;;;;;;;5.82;2.70;;;;;;;;;;8199978;28;20883;-71
2022/04/19 05:38:15;;;;;;;4.03;2.20;;;;;;;;;;8202298;28;20037;-71
2022/04/19 05:42:15;;;;;;;5.53;1.90;;;;;;;;;;8199932;28;20369;-71
2022/04/19 05:46:17;;;;;;;8.63;2.10;;;;;;;;;;8200588;28;20129;-71
2022/04/19 05:50:18;;;;;;;4.60;1.67;;;;;;;;;;8201877;28;20405;-71
2022/04/19 05:54:18;;;;;;;2.13;1.52;;;;;;;;;;8186219;28;20019;-71
2022/04/19 05:58:18;;;;;;;3.60;1.63;;;;;;;;;;8182960;28;20023;-71
2022/04/19 06:06:39;;;;;;;1.92;1.70;;;;;;;;;;8202663;28;20377;-71
2022/04/19 06:10:40;;;;;;;2.67;1.40;;;;;;;;;;8202628;28;20081;-71
2022/04/19 06:14:40;;;;;;;4.65;1.90;;;;;;;;;;8204859;28;20084;-71
2022/04/19 06:18:41;;;;;;;1.77;1.48;;;;;;;;;;8202203;28;20039;-72
2022/04/19 06:22:41;;;;;;;2.13;1.80;;;;;;;;;;8185123;28;20057;-72
2022/04/19 06:26:41;;;;;;;2.05;1.70;;;;;;;;;;8202493;28;20022;-72
2022/04/19 06:30:41;;;;;;;3.05;2.10;;;;;;;;;;8202142;28;20065;-72
2022/04/19 06:34:41;;;;;;;2.22;1.90;;;;;;;;;;8182347;28;20787;-72
2022/04/19 06:38:42;;;;;;;2.17;1.98;;;;;;;;;;8205300;28;20037;-72
2022/04/19 06:42:45;;;;;;;2.23;1.90;;;;;;;;;;8204270;28;20772;-72
2022/04/19 06:46:47;;;;;;;4.33;2.10;;;;;;;;;;8210330;28;20158;-72
2022/04/19 06:50:47;;;;;;;5.43;2.30;;;;;;;;;;8192020;28;20518;-72
2022/04/19 06:54:49;;;;;;;2.60;2.08;;;;;;;;;;8211767;28;20031;-72
2022/04/19 06:58:49;;;;;;;2.00;1.80;;;;;;;;;;8212514;28;20027;-72
2022/04/19 07:02:49;;;;;;;2.25;1.92;;;;;;;;;;8209111;28;20153;-72
2022/04/19 07:06:49;;;;;;;2.50;2.13;;;;;;;;;;8211366;28;20586;-72
2022/04/19 07:10:49;;;;;;;2.63;2.25;;;;;;;;;;8192333;28;20361;-72
2022/04/19 07:14:50;;;;;;;2.78;2.50;;;;;;;;;;8202083;28;20027;-72
2022/04/19 07:18:50;;;;;;;3.28;2.60;;;;;;;;;;8206522;28;20040;-72
2022/04/19 07:27:09;;;;;;;5.00;2.55;;;;;;;;;;8203365;28;20106;-72
2022/04/19 07:31:09;;;;;;;2.75;2.40;;;;;;;;;;8190365;28;20031;-73
2022/04/19 07:35:10;;;;;;;3.30;2.10;;;;;;;;;;8205742;28;20364;-73
2022/04/19 07:39:12;;;;;;;3.13;2.22;;;;;;;;;;8205997;28;20983;-73
2022/04/19 07:43:13;;;;;;;2.50;2.28;;;;;;;;;;8208164;28;20035;-72
2022/04/19 07:47:14;;;;;;;2.33;2.13;;;;;;;;;;8203631;28;20073;-73
2022/04/19 07:51:15;;;;;;;3.78;2.38;;;;;;;;;;8205908;28;20030;-73
2022/04/19 07:55:15;;;;;;;2.88;2.50;;;;;;;;;;8205877;28;20821;-73
2022/04/19 07:59:16;;;;;;;3.63;2.90;;;;;;;;;;8210271;28;20101;-73
2022/04/19 08:03:16;;;;;;;2.50;2.30;;;;;;;;;;8212083;28;20039;-73
2022/04/19 08:07:16;;;;;;;4.00;2.40;;;;;;;;;;8213155;28;20598;-73
2022/04/19 08:11:17;;;;;;;2.83;2.03;;;;;;;;;;8192194;28;20026;-73
2022/04/19 08:15:18;;;;;;;4.07;2.38;;;;;;;;;;8205776;28;20041;-73
2022/04/19 08:19:18;;;;;;;4.30;2.80;;;;;;;;;;8210664;28;20601;-73
2022/04/19 08:23:18;;;;;;;3.17;2.88;;;;;;;;;;8210477;28;20027;-73
2022/04/19 08:27:19;;;;;;;2.95;2.65;;;;;;;;;;8209544;28;20030;-73
2022/04/19 08:31:19;;;;;;;4.07;2.95;;;;;;;;;;8205501;28;20571;-73
2022/04/19 08:35:20;;;;;;;3.70;3.05;;;;;;;;;;8209658;28;20015;-73
2022/04/19 08:39:20;;;;;;;3.85;3.28;;;;;;;;;;8208100;28;20090;-72
2022/04/19 08:43:20;;;;;;;7.05;3.17;;;;;;;;;;8188823;28;20081;-73
2022/04/19 08:47:22;;;;;;;4.32;3.33;;;;;;;;;;8181120;28;20840;-73
2022/04/19 08:51:25;;;;;;;5.50;3.00;;;;;;;;;;8199907;28;20173;-73
2022/04/19 08:59:44;;;;;;;4.97;3.80;;;;;;;;;;8202025;28;20101;-69
2022/04/19 09:03:45;;;;;;;4.90;3.83;;;;;;;;;;8198482;28;20050;-69
2022/04/19 09:07:46;;;;;;;4.00;3.50;;;;;;;;;;8202158;28;20095;-69
2022/04/19 09:11:46;;;;;;;5.35;3.70;;;;;;;;;;8202930;28;20547;-69
2022/04/19 09:15:47;;;;;;;4.13;3.72;;;;;;;;;;8201693;28;20134;-69
2022/04/19 09:19:47;;;;;;;4.53;3.72;;;;;;;;;;8202633;28;20031;-68
2022/04/19 09:23:51;;;;;;;5.68;3.85;;;;;;;;;;8201579;28;20027;-68
2022/04/19 09:27:53;;;;;;;5.63;4.20;;;;;;;;;;8201969;28;20110;-69
2022/04/19 09:31:54;;;;;;;5.38;4.03;;;;;;;;;;8201727;28;20913;-69
2022/04/19 09:35:58;;;;;;;4.53;3.80;;;;;;;;;;8202811;28;20121;-69
2022/04/19 09:39:59;;;;;;;4.07;3.72;;;;;;;;;;8202128;28;20027;-69
2022/04/19 09:44:09;;;;;;;5.38;3.75;;;;;;;;;;8186154;28;20030;-69
2022/04/19 09:48:14;;;;;;;4.00;3.65;;;;;;;;;;8204388;28;20038;-69
2022/04/19 09:52:21;;;;;;;5.30;3.92;;;;;;;;;;8203863;28;20038;-69
2022/04/19 09:56:22;;;;;;;4.43;4.03;;;;;;;;;;8200791;28;20027;-69
2022/04/19 10:00:22;;;;;;;5.68;4.05;;;;;;;;;;8196719;28;20090;-72
2022/04/19 10:08:41;;;;;;;7.70;4.70;;;;;;;;;;8194068;28;20041;-72
2022/04/19 10:12:43;;;;;;;4.30;3.90;;;;;;;;;;8195677;28;20030;-73
2022/04/19 10:16:43;;;;;;;5.00;4.45;;;;;;;;;;8199360;28;20096;-73
2022/04/19 10:20:54;;;;;;;8.23;4.10;;;;;;;;;;8197990;28;20039;-73
2022/04/19 10:24:57;;;;;;;5.05;4.45;;;;;;;;;;8198902;28;21044;-74
2022/04/19 10:28:58;;;;;;;5.03;4.53;;;;;;;;;;8176536;28;20015;-74
2022/04/19 10:33:00;;;;;;;4.68;4.10;;;;;;;;;;8193671;28;20392;-72
2022/04/19 10:37:15;;;;;;;6.20;4.25;;;;;;;;;;8197615;28;20030;-74
2022/04/19 10:41:37;;;;;;;4.90;4.32;;;;;;;;;;8192757;28;20054;-75
2022/04/19 10:45:38;;;;;;;4.60;4.18;;;;;;;;;;8200623;28;20138;-72
2022/04/19 10:49:58;;;;;;;9.95;4.30;;;;;;;;;;8196842;28;20078;-72
2022/04/19 10:53:58;;;;;;;6.57;4.40;;;;;;;;;;8199594;28;20218;-72
2022/04/19 10:58:23;;;;;;;4.55;4.15;;;;;;;;;;8192168;28;20058;-72
2022/04/19 11:02:35;;;;;;;5.22;4.10;;;;;;;;;;8174936;28;20037;-72
2022/04/19 11:06:36;;;;;;;6.00;4.90;;;;;;;;;;8196757;28;20057;-72
2022/04/19 11:10:38;;;;;;;5.22;4.50;;;;;;;;;;8197326;28;20089;-72
2022/04/19 11:14:42;;;;;;;5.07;4.35;;;;;;;;;;8195213;28;20035;-72
2022/04/19 11:18:42;;;;;;;6.35;4.85;;;;;;;;;;8195097;28;20043;-72
2022/04/19 11:22:46;;;;;;;6.47;4.78;;;;;;;;;;8195623;28;20050;-72
2022/04/19 11:26:46;;;;;;;5.65;4.63;;;;;;;;;;8192055;28;20982;-72
2022/04/19 11:30:49;;;;;;;6.05;5.18;;;;;;;;;;8191848;28;20034;-72
2022/04/19 11:34:49;;;;;;;;;;;;;;;;;;8194187;28;20408;-72
2022/04/19 11:38:50;;;;;;;5.07;4.47;;;;;;;;;;8194076;28;20037;-72
2022/04/19 11:47:10;;;;;;;5.78;4.65;;;;;;;;;;8194509;28;20058;-72
2022/04/19 11:51:11;;;;;;;5.50;4.97;;;;;;;;;;8194299;28;20444;-71
2022/04/19 11:55:14;;;;;;;8.90;5.00;;;;;;;;;;8193433;28;20403;-72
2022/04/19 11:59:14;;;;;;;6.60;5.07;;;;;;;;;;8190923;28;20097;-72
2022/04/19 12:03:27;;;;;;;9.45;4.50;;;;;;;;;;8189756;28;20042;-72
2022/04/19 12:07:27;;;;;;;4.90;4.20;;;;;;;;;;8192062;28;20099;-72
2022/04/19 12:11:29;;;;;;;5.78;4.05;;;;;;;;;;8190419;28;20373;-72
2022/04/19 12:15:40;;;;;;;5.30;4.32;;;;;;;;;;8189060;28;20039;-72
2022/04/19 12:19:41;;;;;;;5.22;4.47;;;;;;;;;;8194744;28;20030;-72
2022/04/19 12:23:50;;;;;;;4.75;4.20;;;;;;;;;;8194252;28;20030;-72
2022/04/19 12:27:54;;;;;;;6.40;4.93;;;;;;;;;;8179531;28;20033;-72
2022/04/19 12:31:58;;;;;;;9.50;4.20;;;;;;;;;;8171142;28;20126;-72
2022/04/19 12:35:58;;;;;;;7.20;4.38;;;;;;;;;;8194510;28;20706;-72
2022/04/19 12:40:02;;;;;;;9.65;5.50;;;;;;;;;;8195271;28;20027;-72
2022/04/19 12:44:03;;;;;;;7.47;5.03;;;;;;;;;;8194917;28;20033;-72
2022/04/19 12:48:04;;;;;;;7.18;4.97;;;;;;;;;;8195038;28;20069;-72
2022/04/19 12:52:07;;;;;;;6.57;4.70;;;;;;;;;;8193509;28;20027;-71
2022/04/19 12:56:08;;;;;;;8.00;4.75;;;;;;;;;;8191167;28;20015;-72
2022/04/19 13:00:10;;;;;;;7.35;5.20;;;;;;;;;;8193221;28;20355;-72
2022/04/19 13:04:10;;;;;;;6.55;5.10;;;;;;;;;;8181715;28;20022;-69
2022/04/19 13:12:30;;;;;;;8.10;6.25;;;;;;;;;;8190096;28;20125;-68
2022/04/19 13:16:30;;;;;;;6.72;5.50;;;;;;;;;;8194152;28;20051;-69
2022/04/19 13:20:31;;;;;;;7.38;5.78;;;;;;;;;;8190352;28;20030;-69
2022/04/19 13:24:31;;;;;;;8.47;6.80;;;;;;;;;;8191067;28;20104;-69
2022/04/19 13:28:31;;;;;;;7.13;6.35;;;;;;;;;;8192382;28;20073;-69
2022/04/19 13:32:32;;;;;;;7.07;4.90;;;;;;;;;;8193323;28;20524;-69
2022/04/19 13:36:32;;;;;;;9.85;7.32;;;;;;;;;;8175937;28;20177;-69
2022/04/19 13:40:32;;;;;;;7.35;5.93;;;;;;;;;;8193390;28;20026;-70
2022/04/19 13:44:32;;;;;;;7.68;5.72;;;;;;;;;;8181497;28;20034;-69
2022/04/19 13:48:36;;;;;;;9.43;6.23;;;;;;;;;;8197966;28;20525;-69
2022/04/19 13:52:36;;;;;;;;;;;;;;;;;;8198421;28;20041;-69
2022/04/19 13:56:37;;;;;;;8.80;6.57;;;;;;;;;;8199590;28;20364;-69
2022/04/19 14:00:37;;;;;;;7.50;6.57;;;;;;;;;;8202318;28;20047;-69
2022/04/19 14:04:38;;;;;;;9.93;6.07;;;;;;;;;;8209715;28;20038;-69
2022/04/19 14:08:38;;;;;;;8.27;6.40;;;;;;;;;;8212565;28;20450;-69
2022/04/19 14:12:41;;;;;;;7.13;5.60;;;;;;;;;;8205677;28;20126;-69
2022/04/19 14:16:41;;;;;;;5.55;4.90;;;;;;;;;;8204026;28;20062;-69
2022/04/19 14:20:41;;;;;;;9.23;6.10;;;;;;;;;;8208274;28;20888;-69
2022/04/19 14:24:43;;;;;;;12.35;5.60;;;;;;;;;;8208355;28;20019;-69
2022/04/19 14:33:18;;;;;;;7.65;5.32;;;;;;;;;;8202969;28;20097;-69
2022/04/19 14:37:19;;;;;;;6.22;5.18;;;;;;;;;;8181455;28;20089;-69
2022/04/19 14:41:19;;;;;;;8.25;5.07;;;;;;;;;;8204044;28;20031;-69
2022/04/19 14:45:19;;;;;;;7.68;6.03;;;;;;;;;;8201413;28;20027;-70
2022/04/19 14:49:19;;;;;;;6.75;5.60;;;;;;;;;;8196631;28;20034;-69
2022/04/19 14:53:20;;;;;;;7.95;6.13;;;;;;;;;;8196861;28;20066;-69
2022/04/19 14:57:21;;;;;;;7.63;5.18;;;;;;;;;;8194043;28;20037;-68
2022/04/19 15:01:21;;;;;;;7.68;5.70;;;;;;;;;;8192895;28;20391;-69
2022/04/19 15:05:21;;;;;;;6.60;4.72;;;;;;;;;;8192818;28;20058;-69
2022/04/19 15:09:22;;;;;;;11.15;5.72;;;;;;;;;;8189822;28;20026;-69
2022/04/19 15:13:22;;;;;;;6.17;4.90;;;;;;;;;;8191258;28;20015;-69
2022/04/19 15:17:22;;;;;;;7.30;5.25;;;;;;;;;;8189311;28;20278;-69
2022/04/19 15:21:22;;;;;;;6.90;5.15;;;;;;;;;;8192678;28;20045;-69
2022/04/19 15:25:23;;;;;;;7.22;4.65;;;;;;;;;;8192238;28;20026;-70
2022/04/19 15:29:29;;;;;;;5.65;4.18;;;;;;;;;;8175357;28;20031;-69
2022/04/19 15:33:29;;;;;;;5.32;4.10;;;;;;;;;;8189252;28;20050;-68
2022/04/19 15:37:29;;;;;;;4.87;4.27;;;;;;;;;;8189741;28;20035;-69
2022/04/19 15:41:30;;;;;;;8.68;4.20;;;;;;;;;;8172810;28;20383;-69
2022/04/19 15:45:31;;;;;;;4.50;3.60;;;;;;;;;;8190020;28;20412;-69
2022/04/19 15:49:31;;;;;;;3.70;3.13;;;;;;;;;;8191315;28;20029;-73
2022/04/19 15:53:33;;;;;;;4.30;3.10;;;;;;;;;;8180019;28;20049;-70
2022/04/19 15:57:33;;;;;;;3.75;3.35;;;;;;;;;;8190489;28;20034;-71
2022/04/19 16:01:33;;;;;;;4.90;3.28;;;;;;;;;;8191969;28;20031;-76
2022/04/19 16:05:34;;;;;;;4.95;2.80;;;;;;;;;;8203356;28;20963;-81
2022/04/19 16:09:34;;;;;;;2.63;2.40;;;;;;;;;;8187485;28;20029;-81
2022/04/19 16:13:35;;;;;;;2.58;2.20;;;;;;;;;;8203213;28;20035;-76
2022/04/19 16:26:18;;;;;;;4.53;1.60;;;;;;;;;;8205273;28;20106;-80
2022/04/19 16:30:19;;;;;;;1.20;1.10;;;;;;;;;;8180635;28;20027;-80
2022/04/19 16:34:19;;;;;;;2.43;1.30;;;;;;;;;;8202852;28;20020;-76
2022/04/19 16:38:20;;;;;;;1.47;1.20;;;;;;;;;;8185648;28;20022;-75
2022/04/19 16:42:20;;;;;;;2.28;1.08;;;;;;;;;;8201127;28;20054;-75
2022/04/19 16:46:20;;;;;;;4.73;1.20;;;;;;;;;;8196763;28;20074;-73
2022/04/19 16:50:20;;;;;;;1.90;1.00;;;;;;;;;;8193000;28;20026;-74
2022/04/19 16:54:21;;;;;;;7.25;1.30;;;;;;;;;;8190667;28;20057;-75
2022/04/19 16:58:21;;;;;;;2.30;1.00;;;;;;;;;;8199002;28;20037;-74
2022/04/19 17:02:21;;;;;;;1.45;1.00;;;;;;;;;;8190525;28;21070;-75
2022/04/19 17:06:22;;;;;;;4.60;1.15;;;;;;;;;;8191051;28;20030;-72
2022/04/19 17:10:22;;;;;;;2.47;0.90;;;;;;;;;;8189403;28;20081;-72
2022/04/19 17:14:23;;;;;;;2.22;1.10;;;;;;;;;;8193385;28;20034;-73
2022/04/19 17:18:23;;;;;;;1.73;1.02;;;;;;;;;;8191171;28;20132;-72
2022/04/19 17:22:24;;;;;;;2.85;1.35;;;;;;;;;;8185583;28;20023;-73
2022/04/19 17:26:25;;;;;;;1.33;1.23;;;;;;;;;;8194516;28;20035;-73
2022/04/19 17:30:26;;;;;;;3.58;1.50;;;;;;;;;;8195419;28;20415;-73
2022/04/19 17:34:26;;;;;;;2.33;1.25;;;;;;;;;;8195192;28;20022;-73
2022/04/19 17:38:27;;;;;;;1.50;1.20;;;;;;;;;;8219285;28;20030;-75
2022/04/19 17:42:29;;;;;;;1.65;1.30;;;;;;;;;;8201435;28;20278;-76
2022/04/19 17:46:30;;;;;;;2.35;1.52;;;;;;;;;;8198386;28;20042;-75
2022/04/19 17:59:09;;;;;;;1.90;1.70;;;;;;;;;;8238936;28;20041;-74
2022/04/19 18:03:11;;;;;;;3.25;1.70;;;;;;;;;;8216029;28;20041;-75
2022/04/19 18:07:12;;;;;;;3.58;1.80;;;;;;;;;;8231072;28;20025;-75
2022/04/19 18:11:12;;;;;;;2.53;1.67;;;;;;;;;;8227780;28;20026;-75
2022/04/19 18:15:12;;;;;;;2.37;1.80;;;;;;;;;;8217046;28;20055;-75
2022/04/19 18:19:13;;;;;;;3.33;2.10;;;;;;;;;;8218120;28;20056;-75
2022/04/19 18:27:32;;;;;;;4.57;2.10;;;;;;;;;;8200450;28;20109;-74
2022/04/19 18:31:34;;;;;;;4.53;2.00;;;;;;;;;;8196195;28;20042;-76
2022/04/19 18:35:34;;;;;;;4.40;1.50;;;;;;;;;;8205140;28;20027;-76
2022/04/19 18:39:35;;;;;;;1.60;1.40;;;;;;;;;;8206042;28;20568;-76
2022/04/19 18:43:35;;;;;;;1.73;1.15;;;;;;;;;;8187601;28;20038;-76
2022/04/19 18:47:36;;;;;;;1.63;1.10;;;;;;;;;;8201137;28;20141;-76
2022/04/19 18:51:36;;;;;;;1.77;1.00;;;;;;;;;;8200280;28;20034;-76
2022/04/19 18:55:36;;;;;;;1.38;0.77;;;;;;;;;;8209582;28;20102;-76
2022/04/19 18:59:36;;;;;;;2.83;0.90;;;;;;;;;;8212046;28;20041;-75
2022/04/19 19:03:37;;;;;;;0.93;0.85;;;;;;;;;;8226386;28;20107;-75
2022/04/19 19:07:37;;;;;;;6.10;1.00;;;;;;;;;;8190197;28;20494;-76
2022/04/19 19:11:37;;;;;;;5.72;0.90;;;;;;;;;;8193524;28;20023;-75
2022/04/19 19:15:38;;;;;;;0.70;0.70;;;;;;;;;;8193036;28;20039;-75
2022/04/19 19:19:38;;;;;;;2.03;0.80;;;;;;;;;;8183619;28;20120;-75
2022/04/19 19:23:40;;;;;;;5.15;0.80;;;;;;;;;;8191580;28;20293;-74
2022/04/19 19:27:40;;;;;;;1.48;0.55;;;;;;;;;;8192916;28;20038;-75
2022/04/19 19:31:41;;;;;;;0.80;0.70;;;;;;;;;;8197183;28;20138;-74
2022/04/19 19:35:41;;;;;;;0.70;0.70;;;;;;;;;;8175465;28;20015;-75
2022/04/19 19:39:42;;;;;;;0.70;0.70;;;;;;;;;;8196117;28;20094;-75
2022/04/19 19:43:43;;;;;;;1.23;0.80;;;;;;;;;;8199203;28;20165;-74
2022/04/19 19:47:44;;;;;;;1.48;0.70;;;;;;;;;;8196549;28;20440;-74
2022/04/19 19:51:44;;;;;;;1.27;0.60;;;;;;;;;;8182117;28;20069;-75
2022/04/19 19:55:44;;;;;;;1.45;0.60;;;;;;;;;;8178594;28;20066;-74
2022/04/19 19:59:44;;;;;;;0.80;0.60;;;;;;;;;;8195290;28;20030;-74
2022/04/19 20:03:45;;;;;;;1.40;0.70;;;;;;;;;;8175983;28;20035;-74
2022/04/19 20:07:45;;;;;;;1.30;0.80;;;;;;;;;;8176664;28;20654;-74
2022/04/19 20:11:45;;;;;;;2.58;0.60;;;;;;;;;;8197199;28;20031;-74
2022/04/19 20:15:46;;;;;;;0.82;0.70;;;;;;;;;;8194640;28;20054;-74
2022/04/19 20:19:46;;;;;;;0.60;0.60;;;;;;;;;;8189958;28;20145;-74
2022/04/19 20:23:48;;;;;;;1.70;0.80;;;;;;;;;;8191264;28;20049;-74
2022/04/19 20:27:48;;;;;;;2.22;0.80;;;;;;;;;;8175269;28;20057;-74
2022/04/19 20:31:49;;;;;;;0.77;0.63;;;;;;;;;;8193088;28;20412;-74
2022/04/19 20:35:49;;;;;;;0.85;0.70;;;;;;;;;;8174931;28;20027;-74
2022/04/19 20:39:50;;;;;;;1.67;0.70;;;;;;;;;;8193337;28;20050;-73
2022/04/19 20:43:52;;;;;;;0.60;0.60;;;;;;;;;;8240342;28;20023;-75
2022/04/19 20:52:22;;;;;;;1.08;0.70;;;;;;;;;;8241624;28;20401;-74
2022/04/19 20:56:23;;;;;;;0.80;0.75;;;;;;;;;;8249569;28;20035;-73
2022/04/19 21:00:25;;;;;;;1.08;0.75;;;;;;;;;;8233389;28;20034;-74
2022/04/19 21:04:26;;;;;;;2.40;0.88;;;;;;;;;;8218950;28;20033;-73
2022/04/19 21:08:28;;;;;;;0.70;0.70;;;;;;;;;;8234866;28;20026;-74
2022/04/19 21:12:32;;;;;;;1.25;0.75;;;;;;;;;;8250828;28;20046;-74
2022/04/19 21:16:40;;;;;;;2.30;0.90;;;;;;;;;;8249392;28;20038;-74
2022/04/19 21:20:40;;;;;;;1.13;0.90;;;;;;;;;;8251912;28;20313;-74
2022/04/19 21:24:59;;;;;;;1.85;0.70;;;;;;;;;;8248076;28;20022;-74
2022/04/19 21:28:59;;;;;;;0.80;0.80;;;;;;;;;;8249107;28;20025;-74
2022/04/19 21:33:06;;;;;;;2.25;0.90;;;;;;;;;;8247621;28;20030;-74
2022/04/19 21:37:06;;;;;;;3.13;0.90;;;;;;;;;;8247742;28;20026;-74
2022/04/19 21:41:07;;;;;;;1.00;0.80;;;;;;;;;;8232957;28;20077;-74
2022/04/19 21:45:08;;;;;;;3.37;1.00;;;;;;;;;;8249630;28;20297;-74
2022/04/19 21:49:08;;;;;;;0.80;0.80;;;;;;;;;;8229906;28;20802;-74
2022/04/19 21:53:08;;;;;;;2.70;1.13;;;;;;;;;;8214046;28;20130;-74
2022/04/19 21:57:08;;;;;;;4.68;1.05;;;;;;;;;;8231347;28;20741;-74
2022/04/19 22:01:15;;;;;;;1.77;0.80;;;;;;;;;;8248826;28;20035;-74
2022/04/19 22:05:16;;;;;;;1.95;1.05;;;;;;;;;;8249039;28;20254;-73
2022/04/19 22:09:20;;;;;;;1.35;1.00;;;;;;;;;;8246219;28;20134;-74
2022/04/19 22:13:20;;;;;;;0.90;0.90;;;;;;;;;;8224044;28;20106;-74
2022/04/19 22:17:21;;;;;;;2.53;1.20;;;;;;;;;;8227558;28;20043;-74
2022/04/19 22:21:21;;;;;;;1.70;1.13;;;;;;;;;;8248420;28;20026;-74
2022/04/19 22:25:21;;;;;;;1.40;1.10;;;;;;;;;;8225612;28;20887;-74
2022/04/19 22:29:24;;;;;;;2.65;1.23;;;;;;;;;;8228317;28;20036;-74
2022/04/19 22:33:30;;;;;;;1.97;1.23;;;;;;;;;;8230798;28;20039;-74
2022/04/19 22:37:30;;;;;;;1.50;1.25;;;;;;;;;;8244341;28;20037;-74
2022/04/19 22:41:30;;;;;;;5.88;1.60;;;;;;;;;;8245303;28;20035;-73
2022/04/19 22:45:30;;;;;;;3.58;1.50;;;;;;;;;;8248181;28;20050;-74
2022/04/19 22:49:30;;;;;;;2.67;1.40;;;;;;;;;;8248690;28;20030;-74
2022/04/19 22:53:31;;;;;;;1.58;1.48;;;;;;;;;;8247826;28;20035;-74
2022/04/19 22:57:31;;;;;;;1.83;1.40;;;;;;;;;;8247772;28;20038;-74
2022/04/19 23:01:32;;;;;;;2.10;1.40;;;;;;;;;;8246928;28;20097;-73
2022/04/19 23:05:32;;;;;;;1.83;1.50;;;;;;;;;;8245973;28;20030;-73
2022/04/19 23:09:32;;;;;;;1.52;1.23;;;;;;;;;;8229029;28;20038;-73
2022/04/19 23:13:34;;;;;;;1.45;1.35;;;;;;;;;;8226152;28;20038;-73
2022/04/19 23:17:34;;;;;;;2.33;1.80;;;;;;;;;;8240635;28;20039;-74
2022/04/19 23:21:34;;;;;;;2.40;1.50;;;;;;;;;;8239657;28;20463;-74
2022/04/19 23:25:35;;;;;;;1.50;1.40;;;;;;;;;;8240217;28;20030;-74
2022/04/19 23:29:35;;;;;;;3.17;1.50;;;;;;;;;;8242490;28;20337;-74
2022/04/19 23:33:37;;;;;;;2.20;1.40;;;;;;;;;;8237405;28;20031;-74
2022/04/19 23:37:37;;;;;;;5.43;1.30;;;;;;;;;;8221780;28;20493;-74
2022/04/19 23:41:37;;;;;;;1.80;1.10;;;;;;;;;;8223449;28;20113;-73
2022/04/19 23:45:39;;;;;;;2.47;1.30;;;;;;;;;;8235772;28;20298;-73
2022/04/19 23:49:39;;;;;;;1.60;1.40;;;;;;;;;;8235130;28;20027;-74
2022/04/19 23:53:42;;;;;;;1.92;1.73;;;;;;;;;;8216325;28;20121;-74
2022/04/19 23:57:42;;;;;;;4.20;1.73;;;;;;;;;;8235560;28;20027;-73
